African Highway — 3EOD8 — position and weather

sailwx.info

Track history (hours):
 
Tides and Currents Weather Stations Pressure Air Temp Water Temp Dewpoint Dewpoint Depression Visibility Wind Speed Wind Dir Waves Ship Positions

African Highway

Last reported at 2014-Jul-28 16:33 UTC. Time now 2014-Jul-28 16:35 UTC.
Position N 53°33' E 006°42'.

Length 154.5 m; beam 27.6 m.

Type: Cargo ship. MMSI: 353633000.

Date/timePositionNaut miles runAvg speedWind from/ knotsBaromVisibWave heightAir tempDewpointWater temp
2014-Jul-28 16:33N 53°33' E 006°42'9 9.0
2014-Jul-28 15:32N 53°37' E 006°28'6 6.3
2014-Jul-28 14:33N 53°36' E 006°18'1 0.8
2014-Jul-28 13:13N 53°35' E 006°17'0 0.0
2014-Jul-28 12:31N 53°35' E 006°17'0 0.0
2014-Jul-28 11:31N 53°35' E 006°17'0 0.0
2014-Jul-28 10:31N 53°35' E 006°17'0 0.0
2014-Jul-28 09:34N 53°35' E 006°17'6 5.9
2014-Jul-28 08:33N 53°38' E 006°08'1414.3
2014-Jul-28 07:34N 53°50' E 005°55'1514.9
2014-Jul-28 06:33N 53°56' E 005°32'1616.0
2014-Jul-28 05:34N 53°60' E 005°06'1615.5
2014-Jul-28 04:33N 53°60' E 004°39'4914.8
2014-Jul-28 01:16N 53°48' E 003°19'1115.2
2014-Jul-28 00:34N 53°54' E 003°04'1515.0
2014-Jul-27 23:33N 53°53' E 002°38'3115.6
2014-Jul-27 21:34N 53°48' E 001°46'1615.9
2014-Jul-27 20:34N 53°43' E 001°21'1615.9
2014-Jul-27 19:33N 53°37' E 000°56'1615.8
2014-Jul-27 18:33N 53°32' E 000°30'1312.6
2014-Jul-27 17:34N 53°33' E 000°09'8 7.9
2014-Jul-27 16:30N 53°35' W 000°04'0 0.0
2014-Jul-27 15:34N 53°35' W 000°04'0 0.0
2014-Jul-27 14:30N 53°35' W 000°04'0 0.0
2014-Jul-27 13:30N 53°35' W 000°04'0 0.0
2014-Jul-27 12:33N 53°35' W 000°04'0 0.0
2014-Jul-27 11:33N 53°35' W 000°04'0 0.0
2014-Jul-27 10:30N 53°35' W 000°04'0 0.0
2014-Jul-27 09:34N 53°35' W 000°04'0 0.0
2014-Jul-27 08:33N 53°35' W 000°04'0 0.0
2014-Jul-27 07:34N 53°35' W 000°04'0 0.0
2014-Jul-27 06:31N 53°35' W 000°04'0 0.0
2014-Jul-27 05:33N 53°35' W 000°04'0 0.0
2014-Jul-27 04:33N 53°35' W 000°04'0 0.0
2014-Jul-27 03:34N 53°35' W 000°04'0 0.0
2014-Jul-27 02:33N 53°35' W 000°04'0 0.0
2014-Jul-27 01:34N 53°35' W 000°04'0 0.0
2014-Jul-27 00:34N 53°35' W 000°04'0 0.0
2014-Jul-26 23:30N 53°35' W 000°04'0 0.0
2014-Jul-26 22:33N 53°35' W 000°04'0 0.0
2014-Jul-26 21:31N 53°35' W 000°04'0 0.0
2014-Jul-26 20:30N 53°35' W 000°04'0 0.0
2014-Jul-26 19:33N 53°35' W 000°04'0 0.0
2014-Jul-26 18:34N 53°35' W 000°04'0 0.0
2014-Jul-26 17:33N 53°35' W 000°04'3 3.4
2014-Jul-26 16:34N 53°35' E 000°02'9 9.3
2014-Jul-26 15:33N 53°33' E 000°17'9 8.8
2014-Jul-26 14:33N 53°33' E 000°32'8 7.9
2014-Jul-26 13:34N 53°31' E 000°45'4 3.7
2014-Jul-26 12:33N 53°33' E 000°40'6 5.5
2014-Jul-26 11:33N 53°32' E 000°49'5 5.3
2014-Jul-26 10:33N 53°34' E 000°57'5 5.1
2014-Jul-26 09:33N 53°38' E 001°03'7 7.0
2014-Jul-26 08:33N 53°41' E 001°14'9 8.9
2014-Jul-26 07:33N 53°44' E 001°28'1514.5
2014-Jul-26 06:33N 53°48' E 001°51'1414.4
2014-Jul-26 05:33N 53°51' E 002°15'1514.6
2014-Jul-26 04:33N 53°53' E 002°40'1515.0
2014-Jul-26 03:33N 53°56' E 003°05'1515.3
2014-Jul-26 02:33N 53°59' E 003°31'1615.8
2014-Jul-26 01:33N 54°00' E 003°57'1616.1
2014-Jul-26 00:33N 54°03' E 004°24'1615.8
2014-Jul-25 23:33N 54°01' E 004°51'1615.9
2014-Jul-25 22:33N 53°58' E 005°18'1515.3
2014-Jul-25 21:33N 53°54' E 005°43'1514.6
2014-Jul-25 20:33N 53°50' E 006°07'1312.9
2014-Jul-25 19:33N 53°39' E 006°16'1111.4
2014-Jul-25 18:34N 53°36' E 006°35'1313.4
2014-Jul-25 17:33N 53°27' E 006°52'1110.8
2014-Jul-25 16:34N 53°20' E 007°05'4 4.0
2014-Jul-25 15:33N 53°20' E 007°11'0 0.4
2014-Jul-25 14:31N 53°21' E 007°12'0 0.0
2014-Jul-25 13:31N 53°21' E 007°12'0 0.0
2014-Jul-25 12:31N 53°21' E 007°12'0 0.0
2014-Jul-25 11:31N 53°21' E 007°12'0 0.0
2014-Jul-25 10:31N 53°21' E 007°12'0 0.0
2014-Jul-25 09:31N 53°21' E 007°12'0 0.0
2014-Jul-25 08:31N 53°21' E 007°12'0 0.0
2014-Jul-25 07:31N 53°21' E 007°12'0 0.0
2014-Jul-25 06:28N 53°21' E 007°12'0 0.0
2014-Jul-25 05:28N 53°21' E 007°12'0 0.0
2014-Jul-25 04:31N 53°21' E 007°12'0 0.0
2014-Jul-25 03:31N 53°21' E 007°12'0 0.0
2014-Jul-25 02:31N 53°21' E 007°12'0 0.5
2014-Jul-25 01:33N 53°20' E 007°11'5 5.3
2014-Jul-25 00:33N 53°19' E 007°02'1111.1
2014-Jul-24 23:34N 53°28' E 006°51'1413.9
2014-Jul-24 22:33N 53°37' E 006°32'9 9.4
2014-Jul-24 21:33N 53°36' E 006°17'1 0.7
2014-Jul-24 20:32N 53°36' E 006°16'0 0.0
2014-Jul-24 19:29N 53°36' E 006°16'0 0.0
2014-Jul-24 18:32N 53°36' E 006°16'0 0.0
2014-Jul-24 17:31N 53°36' E 006°16'0 0.0
2014-Jul-24 16:32N 53°36' E 006°16'0 0.0
2014-Jul-24 15:32N 53°36' E 006°16'0 0.0
2014-Jul-24 14:32N 53°36' E 006°16'1 0.6
2014-Jul-24 13:32N 53°35' E 006°15'6 6.5
2014-Jul-24 12:33N 53°38' E 006°05'1313.2
2014-Jul-24 11:33N 53°36' E 005°43'1313.5
2014-Jul-24 10:33N 53°33' E 005°22'1413.7
2014-Jul-24 09:33N 53°28' E 004°60'1413.6
2014-Jul-24 08:33N 53°21' E 004°41'1414.4
2014-Jul-24 07:33N 53°08' E 004°29'1514.8
2014-Jul-24 06:34N 52°55' E 004°18'1514.8
2014-Jul-24 05:33N 52°43' E 004°03'1515.3
2014-Jul-24 04:33N 52°32' E 003°46'1515.2
2014-Jul-24 03:34N 52°21' E 003°30'1615.7
2014-Jul-24 02:33N 52°10' E 003°11'1615.8
2014-Jul-24 01:33N 51°59' E 002°52'1615.9
2014-Jul-24 00:34N 51°53' E 002°28'1616.4
2014-Jul-23 23:34N 51°43' E 002°07'1616.2
2014-Jul-23 22:34N 51°34' E 001°46'1413.6
2014-Jul-23 21:34N 51°27' E 001°28'1211.6
2014-Jul-23 20:34N 51°29' E 001°10'1313.3
2014-Jul-23 19:33N 51°28' E 000°48'3 2.9
2014-Jul-23 18:31N 51°26' E 000°44'0 0.0
2014-Jul-23 17:32N 51°26' E 000°44'0 0.0
2014-Jul-23 16:32N 51°26' E 000°44'0 0.0
2014-Jul-23 15:32N 51°26' E 000°44'0 0.0
2014-Jul-23 14:32N 51°26' E 000°44'0 0.0
2014-Jul-23 13:32N 51°26' E 000°44'0 0.0
2014-Jul-23 12:32N 51°26' E 000°44'0 0.0
2014-Jul-23 11:34N 51°26' E 000°44'8 7.6
2014-Jul-23 10:33N 51°29' E 000°56'1515.5
2014-Jul-23 09:34N 51°29' E 001°21'1111.2
2014-Jul-23 08:33N 51°30' E 001°39'1616.3
2014-Jul-23 07:33N 51°36' E 002°03'1716.8
2014-Jul-23 06:33N 51°46' E 002°24'1717.3
2014-Jul-23 05:33N 51°59' E 002°43'1817.2
2014-Jul-23 04:32N 52°12' E 003°01'1616.4
2014-Jul-23 03:33N 52°25' E 003°17'1515.4
2014-Jul-23 02:33N 52°38' E 003°30'1515.1
2014-Jul-23 01:33N 52°50' E 003°46'1515.0
2014-Jul-23 00:33N 53°01' E 004°03'1515.2
2014-Jul-22 23:33N 53°10' E 004°23'1616.0
2014-Jul-22 22:33N 53°25' E 004°35'1716.6
2014-Jul-22 21:33N 53°33' E 004°60'1717.1
2014-Jul-22 20:34N 53°38' E 005°27'1716.8
2014-Jul-22 19:34N 53°43' E 005°54'1212.4
2014-Jul-22 18:34N 53°39' E 006°13'1312.7
2014-Jul-22 17:33N 53°36' E 006°34'1414.4
2014-Jul-22 16:34N 53°27' E 006°53'1110.5
2014-Jul-22 15:33N 53°20' E 007°06'2 2.3
2014-Jul-22 14:31N 53°20' E 007°10'0 0.0
2014-Jul-22 13:31N 53°20' E 007°10'0 0.0
2014-Jul-22 12:31N 53°20' E 007°10'0 0.0
2014-Jul-22 11:25N 53°20' E 007°10'0 0.0
2014-Jul-22 10:28N 53°20' E 007°10'0 0.0
2014-Jul-22 09:28N 53°20' E 007°10'0 0.0
2014-Jul-22 08:31N 53°20' E 007°10'0 0.0
2014-Jul-22 07:28N 53°20' E 007°10'0 0.0
2014-Jul-22 06:28N 53°20' E 007°10'0 0.0
2014-Jul-22 05:31N 53°20' E 007°10'0 0.0
2014-Jul-22 04:31N 53°20' E 007°10'0 0.0
2014-Jul-22 03:28N 53°20' E 007°10'0 0.0
2014-Jul-22 02:31N 53°20' E 007°10'0 0.0
2014-Jul-22 01:31N 53°20' E 007°10'0 0.0
2014-Jul-22 00:28N 53°20' E 007°10'0 0.0
2014-Jul-21 23:31N 53°20' E 007°10'0 0.0
2014-Jul-21 22:31N 53°20' E 007°10'0 0.0
2014-Jul-21 21:31N 53°20' E 007°10'0 0.0
2014-Jul-21 20:31N 53°20' E 007°10'0 0.0
2014-Jul-21 20:16N 53°20' E 007°10'0 0.0
2014-Jul-21 19:33N 53°20' E 007°10'7 7.0
2014-Jul-21 18:33N 53°22' E 006°59'1515.4
2014-Jul-21 17:33N 53°33' E 006°41'1413.9
2014-Jul-21 16:33N 53°38' E 006°19'1312.8
2014-Jul-21 15:33N 53°39' E 005°57'1312.9
2014-Jul-21 14:33N 53°45' E 005°38'1616.2
2014-Jul-21 13:33N 53°57' E 005°21'1716.5
2014-Jul-21 12:33N 54°01' E 004°54'11115.1
2014-Jul-21 05:14N 53°48' E 001°47'2915.8
2014-Jul-21 03:22N 53°38' E 001°01'1315.9
2014-Jul-21 02:34N 53°34' E 000°40'1515.1
2014-Jul-21 01:34N 53°33' E 000°14'1110.6
2014-Jul-21 00:33N 53°35' W 000°03'1 0.7
2014-Jul-20 23:31N 53°35' W 000°04'0 0.0
2014-Jul-20 22:31N 53°35' W 000°04'0 0.0
2014-Jul-20 21:31N 53°35' W 000°04'0 0.0
2014-Jul-20 20:31N 53°35' W 000°04'0 0.0
2014-Jul-20 19:31N 53°35' W 000°04'0 0.0
2014-Jul-20 18:31N 53°35' W 000°04'0 0.0
2014-Jul-20 17:31N 53°35' W 000°04'0 0.0
2014-Jul-20 16:31N 53°35' W 000°04'0 0.0
2014-Jul-20 15:31N 53°35' W 000°04'0 0.0
2014-Jul-20 14:31N 53°35' W 000°04'0 0.0
2014-Jul-20 13:31N 53°35' W 000°04'0 0.0
2014-Jul-20 12:31N 53°35' W 000°04'0 0.0
2014-Jul-20 11:31N 53°35' W 000°04'0 0.0
2014-Jul-20 10:31N 53°35' W 000°04'0 0.0
2014-Jul-20 09:31N 53°35' W 000°04'0 0.0
2014-Jul-20 08:31N 53°35' W 000°04'0 0.0
2014-Jul-20 07:31N 53°35' W 000°04'0 0.0
2014-Jul-20 06:31N 53°35' W 000°04'0 0.0
2014-Jul-20 05:31N 53°35' W 000°04'0 0.0
2014-Jul-20 04:31N 53°35' W 000°04'0 0.0
2014-Jul-20 03:31N 53°35' W 000°04'0 0.0
2014-Jul-20 02:31N 53°35' W 000°04'0 0.0
2014-Jul-20 01:31N 53°35' W 000°04'0 0.0
2014-Jul-20 00:31N 53°35' W 000°04'0 0.0
2014-Jul-19 23:31N 53°35' W 000°04'0 0.0
2014-Jul-19 22:31N 53°35' W 000°04'0 0.0
2014-Jul-19 21:31N 53°35' W 000°04'0 0.0
2014-Jul-19 20:31N 53°35' W 000°04'0 0.0
2014-Jul-19 19:28N 53°35' W 000°04'0 0.0
2014-Jul-19 18:28N 53°35' W 000°04'0 0.0
2014-Jul-19 17:31N 53°35' W 000°04'0 0.0
2014-Jul-19 16:28N 53°35' W 000°04'0 0.0
2014-Jul-19 15:31N 53°35' W 000°04'0 0.0
2014-Jul-19 14:25N 53°35' W 000°04'0 0.0
2014-Jul-19 13:22N 53°35' W 000°04'0 0.0
2014-Jul-19 12:31N 53°35' W 000°04'0 0.0
2014-Jul-19 11:31N 53°35' W 000°04'0 0.0
2014-Jul-19 10:33N 53°35' W 000°04'5 5.1
2014-Jul-19 09:34N 53°35' E 000°04'9 8.9
2014-Jul-19 08:33N 53°33' E 000°19'8 8.2
2014-Jul-19 07:34N 53°33' E 000°33'1111.1
2014-Jul-19 06:34N 53°36' E 000°51'1816.1
2014-Jul-19 05:28N 53°42' E 001°19'1716.3
2014-Jul-19 04:26N 53°48' E 001°46'1516.5
2014-Jul-19 03:33N 53°50' E 002°10'4916.2
2014-Jul-19 00:33N 53°58' E 003°31'2016.0
2014-Jul-18 23:18N 54°01' E 004°05'1216.0
2014-Jul-18 22:33N 54°03' E 004°25'1616.0
2014-Jul-18 21:33N 54°02' E 004°52'1716.5
2014-Jul-18 20:33N 53°58' E 005°20'1717.1
2014-Jul-18 19:33N 53°52' E 005°47'1515.4
2014-Jul-18 18:33N 53°42' E 006°07'1312.8
2014-Jul-18 17:32N 53°37' E 006°27'1717.2
2014-Jul-18 16:33N 53°28' E 006°51'1111.4
2014-Jul-18 15:33N 53°20' E 007°04'  
Track history (hours):
 
Tides and Currents Weather Stations Pressure Air Temp Water Temp Dewpoint Dewpoint Depression Visibility Wind Speed Wind Dir Waves Ship Positions

African Highway

Last reported at 2014-Jul-28 16:33 UTC. Time now 2014-Jul-28 16:35 UTC.
Position N 53°33' E 006°42'.

Length 154.5 m; beam 27.6 m.

Type: Cargo ship. MMSI: 353633000.

Date/timePositionNaut miles runAvg speedWind from/ knotsBaromVisibWave heightAir tempDewpointWater temp
2014-Jul-28 16:33N 53°33' E 006°42'9 9.0
2014-Jul-28 15:32N 53°37' E 006°28'6 6.3
2014-Jul-28 14:33N 53°36' E 006°18'1 0.8
2014-Jul-28 13:13N 53°35' E 006°17'0 0.0
2014-Jul-28 12:31N 53°35' E 006°17'0 0.0
2014-Jul-28 11:31N 53°35' E 006°17'0 0.0
2014-Jul-28 10:31N 53°35' E 006°17'0 0.0
2014-Jul-28 09:34N 53°35' E 006°17'6 5.9
2014-Jul-28 08:33N 53°38' E 006°08'1414.3
2014-Jul-28 07:34N 53°50' E 005°55'1514.9
2014-Jul-28 06:33N 53°56' E 005°32'1616.0
2014-Jul-28 05:34N 53°60' E 005°06'1615.5
2014-Jul-28 04:33N 53°60' E 004°39'4914.8
2014-Jul-28 01:16N 53°48' E 003°19'1115.2
2014-Jul-28 00:34N 53°54' E 003°04'1515.0
2014-Jul-27 23:33N 53°53' E 002°38'3115.6
2014-Jul-27 21:34N 53°48' E 001°46'1615.9
2014-Jul-27 20:34N 53°43' E 001°21'1615.9
2014-Jul-27 19:33N 53°37' E 000°56'1615.8
2014-Jul-27 18:33N 53°32' E 000°30'1312.6
2014-Jul-27 17:34N 53°33' E 000°09'8 7.9
2014-Jul-27 16:30N 53°35' W 000°04'0 0.0
2014-Jul-27 15:34N 53°35' W 000°04'0 0.0
2014-Jul-27 14:30N 53°35' W 000°04'0 0.0
2014-Jul-27 13:30N 53°35' W 000°04'0 0.0
2014-Jul-27 12:33N 53°35' W 000°04'0 0.0
2014-Jul-27 11:33N 53°35' W 000°04'0 0.0
2014-Jul-27 10:30N 53°35' W 000°04'0 0.0
2014-Jul-27 09:34N 53°35' W 000°04'0 0.0
2014-Jul-27 08:33N 53°35' W 000°04'0 0.0
2014-Jul-27 07:34N 53°35' W 000°04'0 0.0
2014-Jul-27 06:31N 53°35' W 000°04'0 0.0
2014-Jul-27 05:33N 53°35' W 000°04'0 0.0
2014-Jul-27 04:33N 53°35' W 000°04'0 0.0
2014-Jul-27 03:34N 53°35' W 000°04'0 0.0
2014-Jul-27 02:33N 53°35' W 000°04'0 0.0
2014-Jul-27 01:34N 53°35' W 000°04'0 0.0
2014-Jul-27 00:34N 53°35' W 000°04'0 0.0
2014-Jul-26 23:30N 53°35' W 000°04'0 0.0
2014-Jul-26 22:33N 53°35' W 000°04'0 0.0
2014-Jul-26 21:31N 53°35' W 000°04'0 0.0
2014-Jul-26 20:30N 53°35' W 000°04'0 0.0
2014-Jul-26 19:33N 53°35' W 000°04'0 0.0
2014-Jul-26 18:34N 53°35' W 000°04'0 0.0
2014-Jul-26 17:33N 53°35' W 000°04'3 3.4
2014-Jul-26 16:34N 53°35' E 000°02'9 9.3
2014-Jul-26 15:33N 53°33' E 000°17'9 8.8
2014-Jul-26 14:33N 53°33' E 000°32'8 7.9
2014-Jul-26 13:34N 53°31' E 000°45'4 3.7
2014-Jul-26 12:33N 53°33' E 000°40'6 5.5
2014-Jul-26 11:33N 53°32' E 000°49'5 5.3
2014-Jul-26 10:33N 53°34' E 000°57'5 5.1
2014-Jul-26 09:33N 53°38' E 001°03'7 7.0
2014-Jul-26 08:33N 53°41' E 001°14'9 8.9
2014-Jul-26 07:33N 53°44' E 001°28'1514.5
2014-Jul-26 06:33N 53°48' E 001°51'1414.4
2014-Jul-26 05:33N 53°51' E 002°15'1514.6
2014-Jul-26 04:33N 53°53' E 002°40'1515.0
2014-Jul-26 03:33N 53°56' E 003°05'1515.3
2014-Jul-26 02:33N 53°59' E 003°31'1615.8
2014-Jul-26 01:33N 54°00' E 003°57'1616.1
2014-Jul-26 00:33N 54°03' E 004°24'1615.8
2014-Jul-25 23:33N 54°01' E 004°51'1615.9
2014-Jul-25 22:33N 53°58' E 005°18'1515.3
2014-Jul-25 21:33N 53°54' E 005°43'1514.6
2014-Jul-25 20:33N 53°50' E 006°07'1312.9
2014-Jul-25 19:33N 53°39' E 006°16'1111.4
2014-Jul-25 18:34N 53°36' E 006°35'1313.4
2014-Jul-25 17:33N 53°27' E 006°52'1110.8
2014-Jul-25 16:34N 53°20' E 007°05'4 4.0
2014-Jul-25 15:33N 53°20' E 007°11'0 0.4
2014-Jul-25 14:31N 53°21' E 007°12'0 0.0
2014-Jul-25 13:31N 53°21' E 007°12'0 0.0
2014-Jul-25 12:31N 53°21' E 007°12'0 0.0
2014-Jul-25 11:31N 53°21' E 007°12'0 0.0
2014-Jul-25 10:31N 53°21' E 007°12'0 0.0
2014-Jul-25 09:31N 53°21' E 007°12'0 0.0
2014-Jul-25 08:31N 53°21' E 007°12'0 0.0
2014-Jul-25 07:31N 53°21' E 007°12'0 0.0
2014-Jul-25 06:28N 53°21' E 007°12'0 0.0
2014-Jul-25 05:28N 53°21' E 007°12'0 0.0
2014-Jul-25 04:31N 53°21' E 007°12'0 0.0
2014-Jul-25 03:31N 53°21' E 007°12'0 0.0
2014-Jul-25 02:31N 53°21' E 007°12'0 0.5
2014-Jul-25 01:33N 53°20' E 007°11'5 5.3
2014-Jul-25 00:33N 53°19' E 007°02'1111.1
2014-Jul-24 23:34N 53°28' E 006°51'1413.9
2014-Jul-24 22:33N 53°37' E 006°32'9 9.4
2014-Jul-24 21:33N 53°36' E 006°17'1 0.7
2014-Jul-24 20:32N 53°36' E 006°16'0 0.0
2014-Jul-24 19:29N 53°36' E 006°16'0 0.0
2014-Jul-24 18:32N 53°36' E 006°16'0 0.0
2014-Jul-24 17:31N 53°36' E 006°16'0 0.0
2014-Jul-24 16:32N 53°36' E 006°16'0 0.0
2014-Jul-24 15:32N 53°36' E 006°16'0 0.0
2014-Jul-24 14:32N 53°36' E 006°16'1 0.6
2014-Jul-24 13:32N 53°35' E 006°15'6 6.5
2014-Jul-24 12:33N 53°38' E 006°05'1313.2
2014-Jul-24 11:33N 53°36' E 005°43'1313.5
2014-Jul-24 10:33N 53°33' E 005°22'1413.7
2014-Jul-24 09:33N 53°28' E 004°60'1413.6
2014-Jul-24 08:33N 53°21' E 004°41'1414.4
2014-Jul-24 07:33N 53°08' E 004°29'1514.8
2014-Jul-24 06:34N 52°55' E 004°18'1514.8
2014-Jul-24 05:33N 52°43' E 004°03'1515.3
2014-Jul-24 04:33N 52°32' E 003°46'1515.2
2014-Jul-24 03:34N 52°21' E 003°30'1615.7
2014-Jul-24 02:33N 52°10' E 003°11'1615.8
2014-Jul-24 01:33N 51°59' E 002°52'1615.9
2014-Jul-24 00:34N 51°53' E 002°28'1616.4
2014-Jul-23 23:34N 51°43' E 002°07'1616.2
2014-Jul-23 22:34N 51°34' E 001°46'1413.6
2014-Jul-23 21:34N 51°27' E 001°28'1211.6
2014-Jul-23 20:34N 51°29' E 001°10'1313.3
2014-Jul-23 19:33N 51°28' E 000°48'3 2.9
2014-Jul-23 18:31N 51°26' E 000°44'0 0.0
2014-Jul-23 17:32N 51°26' E 000°44'0 0.0
2014-Jul-23 16:32N 51°26' E 000°44'0 0.0
2014-Jul-23 15:32N 51°26' E 000°44'0 0.0
2014-Jul-23 14:32N 51°26' E 000°44'0 0.0
2014-Jul-23 13:32N 51°26' E 000°44'0 0.0
2014-Jul-23 12:32N 51°26' E 000°44'0 0.0
2014-Jul-23 11:34N 51°26' E 000°44'8 7.6
2014-Jul-23 10:33N 51°29' E 000°56'1515.5
2014-Jul-23 09:34N 51°29' E 001°21'1111.2
2014-Jul-23 08:33N 51°30' E 001°39'1616.3
2014-Jul-23 07:33N 51°36' E 002°03'1716.8
2014-Jul-23 06:33N 51°46' E 002°24'1717.3
2014-Jul-23 05:33N 51°59' E 002°43'1817.2
2014-Jul-23 04:32N 52°12' E 003°01'1616.4
2014-Jul-23 03:33N 52°25' E 003°17'1515.4
2014-Jul-23 02:33N 52°38' E 003°30'1515.1
2014-Jul-23 01:33N 52°50' E 003°46'1515.0
2014-Jul-23 00:33N 53°01' E 004°03'1515.2
2014-Jul-22 23:33N 53°10' E 004°23'1616.0
2014-Jul-22 22:33N 53°25' E 004°35'1716.6
2014-Jul-22 21:33N 53°33' E 004°60'1717.1
2014-Jul-22 20:34N 53°38' E 005°27'1716.8
2014-Jul-22 19:34N 53°43' E 005°54'1212.4
2014-Jul-22 18:34N 53°39' E 006°13'1312.7
2014-Jul-22 17:33N 53°36' E 006°34'1414.4
2014-Jul-22 16:34N 53°27' E 006°53'1110.5
2014-Jul-22 15:33N 53°20' E 007°06'2 2.3
2014-Jul-22 14:31N 53°20' E 007°10'0 0.0
2014-Jul-22 13:31N 53°20' E 007°10'0 0.0
2014-Jul-22 12:31N 53°20' E 007°10'0 0.0
2014-Jul-22 11:25N 53°20' E 007°10'0 0.0
2014-Jul-22 10:28N 53°20' E 007°10'0 0.0
2014-Jul-22 09:28N 53°20' E 007°10'0 0.0
2014-Jul-22 08:31N 53°20' E 007°10'0 0.0
2014-Jul-22 07:28N 53°20' E 007°10'0 0.0
2014-Jul-22 06:28N 53°20' E 007°10'0 0.0
2014-Jul-22 05:31N 53°20' E 007°10'0 0.0
2014-Jul-22 04:31N 53°20' E 007°10'0 0.0
2014-Jul-22 03:28N 53°20' E 007°10'0 0.0
2014-Jul-22 02:31N 53°20' E 007°10'0 0.0
2014-Jul-22 01:31N 53°20' E 007°10'0 0.0
2014-Jul-22 00:28N 53°20' E 007°10'0 0.0
2014-Jul-21 23:31N 53°20' E 007°10'0 0.0
2014-Jul-21 22:31N 53°20' E 007°10'0 0.0
2014-Jul-21 21:31N 53°20' E 007°10'0 0.0
2014-Jul-21 20:31N 53°20' E 007°10'0 0.0
2014-Jul-21 20:16N 53°20' E 007°10'0 0.0
2014-Jul-21 19:33N 53°20' E 007°10'7 7.0
2014-Jul-21 18:33N 53°22' E 006°59'1515.4
2014-Jul-21 17:33N 53°33' E 006°41'1413.9
2014-Jul-21 16:33N 53°38' E 006°19'1312.8
2014-Jul-21 15:33N 53°39' E 005°57'1312.9
2014-Jul-21 14:33N 53°45' E 005°38'1616.2
2014-Jul-21 13:33N 53°57' E 005°21'1716.5
2014-Jul-21 12:33N 54°01' E 004°54'11115.1
2014-Jul-21 05:14N 53°48' E 001°47'2915.8
2014-Jul-21 03:22N 53°38' E 001°01'1315.9
2014-Jul-21 02:34N 53°34' E 000°40'1515.1
2014-Jul-21 01:34N 53°33' E 000°14'1110.6
2014-Jul-21 00:33N 53°35' W 000°03'1 0.7
2014-Jul-20 23:31N 53°35' W 000°04'0 0.0
2014-Jul-20 22:31N 53°35' W 000°04'0 0.0
2014-Jul-20 21:31N 53°35' W 000°04'0 0.0
2014-Jul-20 20:31N 53°35' W 000°04'0 0.0
2014-Jul-20 19:31N 53°35' W 000°04'0 0.0
2014-Jul-20 18:31N 53°35' W 000°04'0 0.0
2014-Jul-20 17:31N 53°35' W 000°04'0 0.0
2014-Jul-20 16:31N 53°35' W 000°04'0 0.0
2014-Jul-20 15:31N 53°35' W 000°04'0 0.0
2014-Jul-20 14:31N 53°35' W 000°04'0 0.0
2014-Jul-20 13:31N 53°35' W 000°04'0 0.0
2014-Jul-20 12:31N 53°35' W 000°04'0 0.0
2014-Jul-20 11:31N 53°35' W 000°04'0 0.0
2014-Jul-20 10:31N 53°35' W 000°04'0 0.0
2014-Jul-20 09:31N 53°35' W 000°04'0 0.0
2014-Jul-20 08:31N 53°35' W 000°04'0 0.0
2014-Jul-20 07:31N 53°35' W 000°04'0 0.0
2014-Jul-20 06:31N 53°35' W 000°04'0 0.0
2014-Jul-20 05:31N 53°35' W 000°04'0 0.0
2014-Jul-20 04:31N 53°35' W 000°04'0 0.0
2014-Jul-20 03:31N 53°35' W 000°04'0 0.0
2014-Jul-20 02:31N 53°35' W 000°04'0 0.0
2014-Jul-20 01:31N 53°35' W 000°04'0 0.0
2014-Jul-20 00:31N 53°35' W 000°04'0 0.0
2014-Jul-19 23:31N 53°35' W 000°04'0 0.0
2014-Jul-19 22:31N 53°35' W 000°04'0 0.0
2014-Jul-19 21:31N 53°35' W 000°04'0 0.0
2014-Jul-19 20:31N 53°35' W 000°04'0 0.0
2014-Jul-19 19:28N 53°35' W 000°04'0 0.0
2014-Jul-19 18:28N 53°35' W 000°04'0 0.0
2014-Jul-19 17:31N 53°35' W 000°04'0 0.0
2014-Jul-19 16:28N 53°35' W 000°04'0 0.0
2014-Jul-19 15:31N 53°35' W 000°04'0 0.0
2014-Jul-19 14:25N 53°35' W 000°04'0 0.0
2014-Jul-19 13:22N 53°35' W 000°04'0 0.0
2014-Jul-19 12:31N 53°35' W 000°04'0 0.0
2014-Jul-19 11:31N 53°35' W 000°04'0 0.0
2014-Jul-19 10:33N 53°35' W 000°04'5 5.1
2014-Jul-19 09:34N 53°35' E 000°04'9 8.9
2014-Jul-19 08:33N 53°33' E 000°19'8 8.2
2014-Jul-19 07:34N 53°33' E 000°33'1111.1
2014-Jul-19 06:34N 53°36' E 000°51'1816.1
2014-Jul-19 05:28N 53°42' E 001°19'1716.3
2014-Jul-19 04:26N 53°48' E 001°46'1516.5
2014-Jul-19 03:33N 53°50' E 002°10'4916.2
2014-Jul-19 00:33N 53°58' E 003°31'2016.0
2014-Jul-18 23:18N 54°01' E 004°05'1216.0
2014-Jul-18 22:33N 54°03' E 004°25'1616.0
2014-Jul-18 21:33N 54°02' E 004°52'1716.5
2014-Jul-18 20:33N 53°58' E 005°20'1717.1
2014-Jul-18 19:33N 53°52' E 005°47'1515.4
2014-Jul-18 18:33N 53°42' E 006°07'1312.8
2014-Jul-18 17:32N 53°37' E 006°27'1717.2
2014-Jul-18 16:33N 53°28' E 006°51'1111.4
2014-Jul-18 15:33N 53°20' E 007°04'  

Dump ship's entire track history